sensor_id;sensor_type;location;lat;lon;timestamp;P1;durP1;ratioP1;P2;durP2;ratioP2
71963;SDS011;59834;52.124;5.422;2023-05-13T00:00:18;6.75;;;2.25;;
71963;SDS011;59834;52.124;5.422;2023-05-13T00:02:48;4.40;;;2.67;;
71963;SDS011;59834;52.124;5.422;2023-05-13T00:05:20;8.20;;;2.40;;
71963;SDS011;59834;52.124;5.422;2023-05-13T00:07:49;5.35;;;2.30;;
71963;SDS011;59834;52.124;5.422;2023-05-13T00:10:19;3.60;;;2.53;;
71963;SDS011;59834;52.124;5.422;2023-05-13T00:13:10;6.13;;;2.20;;
71963;SDS011;59834;52.124;5.422;2023-05-13T00:15:39;3.00;;;2.17;;
71963;SDS011;59834;52.124;5.422;2023-05-13T00:18:06;5.00;;;2.53;;
71963;SDS011;59834;52.124;5.422;2023-05-13T00:20:37;12.32;;;3.33;;
71963;SDS011;59834;52.124;5.422;2023-05-13T00:23:05;8.85;;;2.40;;
71963;SDS011;59834;52.124;5.422;2023-05-13T00:25:42;4.30;;;2.33;;
71963;SDS011;59834;52.124;5.422;2023-05-13T00:31:12;4.70;;;2.70;;
71963;SDS011;59834;52.124;5.422;2023-05-13T00:33:53;3.83;;;2.63;;
71963;SDS011;59834;52.124;5.422;2023-05-13T00:36:19;5.05;;;2.30;;
71963;SDS011;59834;52.124;5.422;2023-05-13T00:38:46;3.72;;;2.47;;
71963;SDS011;59834;52.124;5.422;2023-05-13T00:41:18;7.43;;;3.07;;
71963;SDS011;59834;52.124;5.422;2023-05-13T00:43:48;2.88;;;2.10;;
71963;SDS011;59834;52.124;5.422;2023-05-13T00:46:19;4.65;;;2.38;;
71963;SDS011;59834;52.124;5.422;2023-05-13T00:48:46;3.88;;;1.90;;
71963;SDS011;59834;52.124;5.422;2023-05-13T00:51:13;3.92;;;1.92;;
71963;SDS011;59834;52.124;5.422;2023-05-13T00:53:40;3.93;;;2.10;;
71963;SDS011;59834;52.124;5.422;2023-05-13T00:56:08;5.15;;;2.05;;
71963;SDS011;59834;52.124;5.422;2023-05-13T00:58:49;7.78;;;2.15;;
71963;SDS011;59834;52.124;5.422;2023-05-13T01:01:37;4.18;;;1.98;;
71963;SDS011;59834;52.124;5.422;2023-05-13T01:07:32;4.35;;;1.88;;
71963;SDS011;59834;52.124;5.422;2023-05-13T01:10:49;4.47;;;2.50;;
71963;SDS011;59834;52.124;5.422;2023-05-13T01:13:25;4.28;;;2.72;;
71963;SDS011;59834;52.124;5.422;2023-05-13T01:16:00;4.80;;;2.78;;
71963;SDS011;59834;52.124;5.422;2023-05-13T01:21:55;4.60;;;3.60;;
71963;SDS011;59834;52.124;5.422;2023-05-13T01:24:25;5.10;;;2.50;;
71963;SDS011;59834;52.124;5.422;2023-05-13T01:26:54;4.40;;;2.80;;
71963;SDS011;59834;52.124;5.422;2023-05-13T01:29:31;6.72;;;3.08;;
71963;SDS011;59834;52.124;5.422;2023-05-13T01:32:00;3.80;;;2.70;;
71963;SDS011;59834;52.124;5.422;2023-05-13T01:34:45;3.83;;;2.80;;
71963;SDS011;59834;52.124;5.422;2023-05-13T01:40:34;5.63;;;2.65;;
71963;SDS011;59834;52.124;5.422;2023-05-13T01:43:13;3.90;;;2.70;;
71963;SDS011;59834;52.124;5.422;2023-05-13T01:48:40;5.60;;;3.13;;
71963;SDS011;59834;52.124;5.422;2023-05-13T01:51:16;13.27;;;3.83;;
71963;SDS011;59834;52.124;5.422;2023-05-13T01:53:48;3.88;;;2.85;;
71963;SDS011;59834;52.124;5.422;2023-05-13T01:56:14;4.88;;;2.88;;
71963;SDS011;59834;52.124;5.422;2023-05-13T01:58:43;4.45;;;2.90;;
71963;SDS011;59834;52.124;5.422;2023-05-13T02:01:09;8.38;;;3.17;;
71963;SDS011;59834;52.124;5.422;2023-05-13T02:03:53;5.43;;;3.13;;
71963;SDS011;59834;52.124;5.422;2023-05-13T02:06:30;6.05;;;3.60;;
71963;SDS011;59834;52.124;5.422;2023-05-13T02:09:04;5.90;;;3.28;;
71963;SDS011;59834;52.124;5.422;2023-05-13T02:11:39;5.20;;;3.00;;
71963;SDS011;59834;52.124;5.422;2023-05-13T02:14:14;3.65;;;2.50;;
71963;SDS011;59834;52.124;5.422;2023-05-13T02:16:48;6.03;;;3.40;;
71963;SDS011;59834;52.124;5.422;2023-05-13T02:19:22;4.05;;;2.63;;
71963;SDS011;59834;52.124;5.422;2023-05-13T02:21:58;3.85;;;2.85;;
71963;SDS011;59834;52.124;5.422;2023-05-13T02:24:31;7.18;;;2.90;;
71963;SDS011;59834;52.124;5.422;2023-05-13T02:27:10;4.68;;;3.42;;
71963;SDS011;59834;52.124;5.422;2023-05-13T02:30:04;9.23;;;3.40;;
71963;SDS011;59834;52.124;5.422;2023-05-13T02:32:43;6.97;;;3.75;;
71963;SDS011;59834;52.124;5.422;2023-05-13T02:35:12;11.20;;;3.58;;
71963;SDS011;59834;52.124;5.422;2023-05-13T02:38:03;5.32;;;3.38;;
71963;SDS011;59834;52.124;5.422;2023-05-13T02:40:38;5.30;;;3.47;;
71963;SDS011;59834;52.124;5.422;2023-05-13T02:43:22;6.05;;;3.40;;
71963;SDS011;59834;52.124;5.422;2023-05-13T02:46:43;9.25;;;4.78;;
71963;SDS011;59834;52.124;5.422;2023-05-13T02:49:12;5.53;;;3.17;;
71963;SDS011;59834;52.124;5.422;2023-05-13T02:51:59;6.85;;;4.00;;
71963;SDS011;59834;52.124;5.422;2023-05-13T02:54:28;5.68;;;3.63;;
71963;SDS011;59834;52.124;5.422;2023-05-13T03:00:09;4.03;;;3.30;;
71963;SDS011;59834;52.124;5.422;2023-05-13T03:05:36;5.05;;;3.92;;
71963;SDS011;59834;52.124;5.422;2023-05-13T03:08:24;6.35;;;4.10;;
71963;SDS011;59834;52.124;5.422;2023-05-13T03:11:00;8.20;;;4.65;;
71963;SDS011;59834;52.124;5.422;2023-05-13T03:13:42;5.07;;;4.30;;
71963;SDS011;59834;52.124;5.422;2023-05-13T03:16:17;8.13;;;4.97;;
71963;SDS011;59834;52.124;5.422;2023-05-13T03:18:46;5.55;;;4.25;;
71963;SDS011;59834;52.124;5.422;2023-05-13T03:24:27;9.43;;;4.55;;
71963;SDS011;59834;52.124;5.422;2023-05-13T03:27:03;10.52;;;4.40;;
71963;SDS011;59834;52.124;5.422;2023-05-13T03:29:36;7.60;;;4.07;;
71963;SDS011;59834;52.124;5.422;2023-05-13T03:32:38;7.43;;;4.97;;
71963;SDS011;59834;52.124;5.422;2023-05-13T03:35:07;4.85;;;4.35;;
71963;SDS011;59834;52.124;5.422;2023-05-13T03:37:41;5.00;;;4.50;;
71963;SDS011;59834;52.124;5.422;2023-05-13T03:40:10;5.38;;;4.50;;
71963;SDS011;59834;52.124;5.422;2023-05-13T03:42:49;8.27;;;5.72;;
71963;SDS011;59834;52.124;5.422;2023-05-13T03:45:22;6.10;;;4.40;;
71963;SDS011;59834;52.124;5.422;2023-05-13T03:47:54;8.18;;;4.75;;
71963;SDS011;59834;52.124;5.422;2023-05-13T03:50:47;9.50;;;5.00;;
71963;SDS011;59834;52.124;5.422;2023-05-13T03:53:43;6.50;;;4.72;;
71963;SDS011;59834;52.124;5.422;2023-05-13T03:59:17;5.83;;;5.20;;
71963;SDS011;59834;52.124;5.422;2023-05-13T04:04:37;9.77;;;5.20;;
71963;SDS011;59834;52.124;5.422;2023-05-13T04:07:17;7.40;;;4.93;;
71963;SDS011;59834;52.124;5.422;2023-05-13T04:09:54;9.07;;;5.72;;
71963;SDS011;59834;52.124;5.422;2023-05-13T04:12:23;11.10;;;5.90;;
71963;SDS011;59834;52.124;5.422;2023-05-13T04:14:55;8.68;;;5.18;;
71963;SDS011;59834;52.124;5.422;2023-05-13T04:17:35;8.75;;;5.38;;
71963;SDS011;59834;52.124;5.422;2023-05-13T04:23:30;10.77;;;5.43;;
71963;SDS011;59834;52.124;5.422;2023-05-13T04:26:00;33.75;;;6.80;;
71963;SDS011;59834;52.124;5.422;2023-05-13T04:28:29;9.07;;;5.78;;
71963;SDS011;59834;52.124;5.422;2023-05-13T04:31:10;8.20;;;6.22;;
71963;SDS011;59834;52.124;5.422;2023-05-13T04:33:45;8.13;;;5.53;;
71963;SDS011;59834;52.124;5.422;2023-05-13T04:36:16;7.00;;;5.13;;
71963;SDS011;59834;52.124;5.422;2023-05-13T04:38:45;7.38;;;6.03;;
71963;SDS011;59834;52.124;5.422;2023-05-13T04:41:14;10.10;;;5.82;;
71963;SDS011;59834;52.124;5.422;2023-05-13T04:43:42;8.23;;;6.15;;
71963;SDS011;59834;52.124;5.422;2023-05-13T04:46:24;7.68;;;5.70;;
71963;SDS011;59834;52.124;5.422;2023-05-13T04:52:12;13.20;;;5.68;;
71963;SDS011;59834;52.124;5.422;2023-05-13T04:55:28;10.18;;;6.43;;
71963;SDS011;59834;52.124;5.422;2023-05-13T04:58:08;7.68;;;5.15;;
71963;SDS011;59834;52.124;5.422;2023-05-13T05:00:37;8.45;;;4.93;;
71963;SDS011;59834;52.124;5.422;2023-05-13T05:03:06;5.93;;;5.15;;
71963;SDS011;59834;52.124;5.422;2023-05-13T05:05:33;7.32;;;5.95;;
71963;SDS011;59834;52.124;5.422;2023-05-13T05:07:59;6.53;;;5.33;;
71963;SDS011;59834;52.124;5.422;2023-05-13T05:10:35;7.90;;;5.57;;
71963;SDS011;59834;52.124;5.422;2023-05-13T05:23:27;6.33;;;5.27;;
71963;SDS011;59834;52.124;5.422;2023-05-13T05:25:57;10.32;;;6.13;;
71963;SDS011;59834;52.124;5.422;2023-05-13T05:28:37;6.90;;;5.00;;
71963;SDS011;59834;52.124;5.422;2023-05-13T05:31:10;6.45;;;4.88;;
71963;SDS011;59834;52.124;5.422;2023-05-13T05:33:53;10.48;;;5.00;;
71963;SDS011;59834;52.124;5.422;2023-05-13T05:36:28;11.10;;;6.00;;
71963;SDS011;59834;52.124;5.422;2023-05-13T05:39:03;7.20;;;5.53;;
71963;SDS011;59834;52.124;5.422;2023-05-13T05:41:38;9.15;;;5.15;;
71963;SDS011;59834;52.124;5.422;2023-05-13T05:44:08;12.02;;;5.78;;
71963;SDS011;59834;52.124;5.422;2023-05-13T05:46:36;8.50;;;5.18;;
71963;SDS011;59834;52.124;5.422;2023-05-13T05:49:03;9.37;;;5.67;;
71963;SDS011;59834;52.124;5.422;2023-05-13T05:51:30;6.32;;;5.55;;
71963;SDS011;59834;52.124;5.422;2023-05-13T05:53:57;14.02;;;6.20;;
71963;SDS011;59834;52.124;5.422;2023-05-13T05:56:23;7.40;;;5.25;;
71963;SDS011;59834;52.124;5.422;2023-05-13T05:58:52;7.55;;;4.57;;
71963;SDS011;59834;52.124;5.422;2023-05-13T06:01:26;9.27;;;4.97;;
71963;SDS011;59834;52.124;5.422;2023-05-13T06:03:58;10.35;;;5.10;;
71963;SDS011;59834;52.124;5.422;2023-05-13T06:06:32;5.30;;;4.80;;
71963;SDS011;59834;52.124;5.422;2023-05-13T06:09:02;6.60;;;5.57;;
71963;SDS011;59834;52.124;5.422;2023-05-13T06:11:29;8.13;;;5.40;;
71963;SDS011;59834;52.124;5.422;2023-05-13T06:13:58;7.93;;;5.30;;
71963;SDS011;59834;52.124;5.422;2023-05-13T06:16:24;8.73;;;5.25;;
71963;SDS011;59834;52.124;5.422;2023-05-13T06:18:52;11.60;;;6.10;;
71963;SDS011;59834;52.124;5.422;2023-05-13T06:21:19;6.65;;;5.57;;
71963;SDS011;59834;52.124;5.422;2023-05-13T06:23:52;6.57;;;5.20;;
71963;SDS011;59834;52.124;5.422;2023-05-13T06:26:19;7.07;;;5.37;;
71963;SDS011;59834;52.124;5.422;2023-05-13T06:28:47;13.52;;;5.50;;
71963;SDS011;59834;52.124;5.422;2023-05-13T06:31:14;10.85;;;5.13;;
71963;SDS011;59834;52.124;5.422;2023-05-13T06:33:41;6.45;;;5.18;;
71963;SDS011;59834;52.124;5.422;2023-05-13T06:37:17;7.43;;;5.18;;
71963;SDS011;59834;52.124;5.422;2023-05-13T06:39:47;11.50;;;5.93;;
71963;SDS011;59834;52.124;5.422;2023-05-13T06:42:19;9.48;;;5.50;;
71963;SDS011;59834;52.124;5.422;2023-05-13T06:48:20;11.45;;;5.35;;
71963;SDS011;59834;52.124;5.422;2023-05-13T06:50:54;6.63;;;4.70;;
71963;SDS011;59834;52.124;5.422;2023-05-13T06:57:28;10.43;;;5.45;;
71963;SDS011;59834;52.124;5.422;2023-05-13T07:00:07;5.85;;;5.22;;
71963;SDS011;59834;52.124;5.422;2023-05-13T07:02:36;9.43;;;5.47;;
71963;SDS011;59834;52.124;5.422;2023-05-13T07:05:03;9.52;;;5.88;;
71963;SDS011;59834;52.124;5.422;2023-05-13T07:07:30;9.00;;;5.20;;
71963;SDS011;59834;52.124;5.422;2023-05-13T07:09:58;7.45;;;6.05;;
71963;SDS011;59834;52.124;5.422;2023-05-13T07:12:24;7.05;;;4.38;;
71963;SDS011;59834;52.124;5.422;2023-05-13T07:14:52;9.65;;;5.00;;
71963;SDS011;59834;52.124;5.422;2023-05-13T07:17:18;5.70;;;4.95;;
71963;SDS011;59834;52.124;5.422;2023-05-13T07:19:45;8.23;;;5.10;;
71963;SDS011;59834;52.124;5.422;2023-05-13T07:22:12;9.38;;;5.10;;
71963;SDS011;59834;52.124;5.422;2023-05-13T07:24:41;9.13;;;5.00;;
71963;SDS011;59834;52.124;5.422;2023-05-13T07:27:08;5.35;;;4.32;;
71963;SDS011;59834;52.124;5.422;2023-05-13T07:29:34;7.05;;;5.05;;
71963;SDS011;59834;52.124;5.422;2023-05-13T07:32:04;4.87;;;4.47;;
71963;SDS011;59834;52.124;5.422;2023-05-13T07:34:32;5.82;;;5.22;;
71963;SDS011;59834;52.124;5.422;2023-05-13T07:37:01;8.48;;;5.28;;
71963;SDS011;59834;52.124;5.422;2023-05-13T07:39:29;8.25;;;4.97;;
71963;SDS011;59834;52.124;5.422;2023-05-13T07:41:58;8.20;;;4.53;;
71963;SDS011;59834;52.124;5.422;2023-05-13T07:44:30;6.20;;;4.80;;
71963;SDS011;59834;52.124;5.422;2023-05-13T07:46:56;9.20;;;5.22;;
71963;SDS011;59834;52.124;5.422;2023-05-13T07:49:23;9.15;;;5.47;;
71963;SDS011;59834;52.124;5.422;2023-05-13T07:51:50;7.55;;;4.22;;
71963;SDS011;59834;52.124;5.422;2023-05-13T07:54:16;6.03;;;4.60;;
71963;SDS011;59834;52.124;5.422;2023-05-13T07:56:43;9.53;;;5.17;;
71963;SDS011;59834;52.124;5.422;2023-05-13T07:59:17;7.25;;;5.20;;
71963;SDS011;59834;52.124;5.422;2023-05-13T08:01:46;5.38;;;4.47;;
71963;SDS011;59834;52.124;5.422;2023-05-13T08:04:13;6.32;;;4.18;;
71963;SDS011;59834;52.124;5.422;2023-05-13T08:06:59;7.75;;;4.60;;
71963;SDS011;59834;52.124;5.422;2023-05-13T08:09:26;5.60;;;4.80;;
71963;SDS011;59834;52.124;5.422;2023-05-13T08:12:01;5.43;;;4.60;;
71963;SDS011;59834;52.124;5.422;2023-05-13T08:14:28;6.63;;;4.43;;
71963;SDS011;59834;52.124;5.422;2023-05-13T08:16:59;8.15;;;4.60;;
71963;SDS011;59834;52.124;5.422;2023-05-13T08:19:26;5.50;;;4.07;;
71963;SDS011;59834;52.124;5.422;2023-05-13T08:21:55;7.97;;;4.70;;
71963;SDS011;59834;52.124;5.422;2023-05-13T08:24:36;6.05;;;4.97;;
71963;SDS011;59834;52.124;5.422;2023-05-13T08:27:05;5.75;;;4.68;;
71963;SDS011;59834;52.124;5.422;2023-05-13T08:29:41;7.95;;;4.97;;
71963;SDS011;59834;52.124;5.422;2023-05-13T08:35:17;9.10;;;4.63;;
71963;SDS011;59834;52.124;5.422;2023-05-13T08:37:46;7.50;;;5.38;;
71963;SDS011;59834;52.124;5.422;2023-05-13T08:40:25;6.70;;;4.00;;
71963;SDS011;59834;52.124;5.422;2023-05-13T08:42:59;6.30;;;4.47;;
71963;SDS011;59834;52.124;5.422;2023-05-13T08:45:34;5.65;;;4.57;;
71963;SDS011;59834;52.124;5.422;2023-05-13T08:48:05;10.97;;;4.90;;
71963;SDS011;59834;52.124;5.422;2023-05-13T08:50:32;5.05;;;4.55;;
71963;SDS011;59834;52.124;5.422;2023-05-13T08:52:59;6.28;;;3.97;;
71963;SDS011;59834;52.124;5.422;2023-05-13T08:55:26;5.18;;;4.10;;
71963;SDS011;59834;52.124;5.422;2023-05-13T08:57:54;8.73;;;4.22;;
71963;SDS011;59834;52.124;5.422;2023-05-13T09:00:20;8.57;;;3.80;;
71963;SDS011;59834;52.124;5.422;2023-05-13T09:02:49;6.65;;;5.13;;
71963;SDS011;59834;52.124;5.422;2023-05-13T09:05:22;6.00;;;4.93;;
71963;SDS011;59834;52.124;5.422;2023-05-13T09:07:57;4.93;;;4.43;;
71963;SDS011;59834;52.124;5.422;2023-05-13T09:10:44;7.35;;;4.38;;
71963;SDS011;59834;52.124;5.422;2023-05-13T09:13:20;4.97;;;4.47;;
71963;SDS011;59834;52.124;5.422;2023-05-13T09:15:47;8.52;;;4.32;;
71963;SDS011;59834;52.124;5.422;2023-05-13T09:18:16;9.23;;;4.47;;
71963;SDS011;59834;52.124;5.422;2023-05-13T09:20:53;5.20;;;4.70;;
71963;SDS011;59834;52.124;5.422;2023-05-13T09:23:21;7.00;;;4.63;;
71963;SDS011;59834;52.124;5.422;2023-05-13T09:25:48;9.20;;;4.73;;
71963;SDS011;59834;52.124;5.422;2023-05-13T09:28:15;7.88;;;4.45;;
71963;SDS011;59834;52.124;5.422;2023-05-13T09:30:43;4.75;;;4.22;;
71963;SDS011;59834;52.124;5.422;2023-05-13T09:33:20;8.27;;;3.90;;
71963;SDS011;59834;52.124;5.422;2023-05-13T09:35:50;6.70;;;4.53;;
71963;SDS011;59834;52.124;5.422;2023-05-13T09:38:25;7.53;;;3.97;;
71963;SDS011;59834;52.124;5.422;2023-05-13T09:40:55;6.28;;;4.38;;
71963;SDS011;59834;52.124;5.422;2023-05-13T09:43:26;7.35;;;4.15;;
71963;SDS011;59834;52.124;5.422;2023-05-13T09:45:57;6.40;;;3.60;;
71963;SDS011;59834;52.124;5.422;2023-05-13T09:48:27;7.47;;;4.35;;
71963;SDS011;59834;52.124;5.422;2023-05-13T09:50:55;9.33;;;4.30;;
71963;SDS011;59834;52.124;5.422;2023-05-13T09:53:25;7.10;;;4.70;;
71963;SDS011;59834;52.124;5.422;2023-05-13T09:55:57;8.63;;;3.58;;
71963;SDS011;59834;52.124;5.422;2023-05-13T09:58:27;4.70;;;4.15;;
71963;SDS011;59834;52.124;5.422;2023-05-13T10:00:57;6.45;;;3.65;;
71963;SDS011;59834;52.124;5.422;2023-05-13T10:03:24;6.60;;;3.90;;
71963;SDS011;59834;52.124;5.422;2023-05-13T10:05:55;5.00;;;4.47;;
71963;SDS011;59834;52.124;5.422;2023-05-13T10:08:54;8.88;;;4.75;;
71963;SDS011;59834;52.124;5.422;2023-05-13T10:11:32;8.20;;;4.53;;
71963;SDS011;59834;52.124;5.422;2023-05-13T10:14:08;7.22;;;4.10;;
71963;SDS011;59834;52.124;5.422;2023-05-13T10:16:38;8.67;;;4.77;;
71963;SDS011;59834;52.124;5.422;2023-05-13T10:19:07;8.57;;;4.97;;
71963;SDS011;59834;52.124;5.422;2023-05-13T10:21:41;7.10;;;4.43;;
71963;SDS011;59834;52.124;5.422;2023-05-13T10:24:12;5.72;;;3.85;;
71963;SDS011;59834;52.124;5.422;2023-05-13T10:26:41;4.63;;;4.15;;
71963;SDS011;59834;52.124;5.422;2023-05-13T10:29:26;9.23;;;4.50;;
71963;SDS011;59834;52.124;5.422;2023-05-13T10:31:59;7.72;;;4.10;;
71963;SDS011;59834;52.124;5.422;2023-05-13T10:34:31;8.48;;;4.80;;
71963;SDS011;59834;52.124;5.422;2023-05-13T10:40:12;11.30;;;5.22;;
71963;SDS011;59834;52.124;5.422;2023-05-13T10:42:54;5.40;;;4.63;;
71963;SDS011;59834;52.124;5.422;2023-05-13T10:45:37;5.25;;;3.83;;
71963;SDS011;59834;52.124;5.422;2023-05-13T10:48:10;7.07;;;4.10;;
71963;SDS011;59834;52.124;5.422;2023-05-13T10:53:24;8.43;;;4.70;;
71963;SDS011;59834;52.124;5.422;2023-05-13T10:55:57;6.20;;;4.70;;
71963;SDS011;59834;52.124;5.422;2023-05-13T10:58:29;4.85;;;4.45;;
71963;SDS011;59834;52.124;5.422;2023-05-13T11:01:17;5.38;;;4.13;;
71963;SDS011;59834;52.124;5.422;2023-05-13T11:06:47;5.50;;;3.50;;
71963;SDS011;59834;52.124;5.422;2023-05-13T11:10:22;8.83;;;3.63;;
71963;SDS011;59834;52.124;5.422;2023-05-13T11:19:17;4.88;;;2.50;;
71963;SDS011;59834;52.124;5.422;2023-05-13T11:25:27;5.40;;;3.33;;
71963;SDS011;59834;52.124;5.422;2023-05-13T11:27:52;9.05;;;2.80;;
71963;SDS011;59834;52.124;5.422;2023-05-13T11:34:07;4.28;;;3.30;;
71963;SDS011;59834;52.124;5.422;2023-05-13T11:37:26;7.82;;;3.50;;
71963;SDS011;59834;52.124;5.422;2023-05-13T11:39:35;4.47;;;3.40;;
71963;SDS011;59834;52.124;5.422;2023-05-13T11:46:18;7.53;;;2.60;;
71963;SDS011;59834;52.124;5.422;2023-05-13T11:48:49;6.68;;;2.33;;
71963;SDS011;59834;52.124;5.422;2023-05-13T11:51:24;5.43;;;2.60;;
71963;SDS011;59834;52.124;5.422;2023-05-13T11:54:01;6.73;;;2.73;;
71963;SDS011;59834;52.124;5.422;2023-05-13T11:56:28;4.55;;;2.25;;
71963;SDS011;59834;52.124;5.422;2023-05-13T11:59:00;5.05;;;2.30;;
71963;SDS011;59834;52.124;5.422;2023-05-13T12:01:40;2.58;;;2.35;;
71963;SDS011;59834;52.124;5.422;2023-05-13T12:04:06;3.80;;;2.60;;
71963;SDS011;59834;52.124;5.422;2023-05-13T12:06:34;3.20;;;2.10;;
71963;SDS011;59834;52.124;5.422;2023-05-13T12:09:09;4.00;;;2.13;;
71963;SDS011;59834;52.124;5.422;2023-05-13T12:12:05;2.53;;;2.20;;
71963;SDS011;59834;52.124;5.422;2023-05-13T12:14:32;3.22;;;2.28;;
71963;SDS011;59834;52.124;5.422;2023-05-13T12:16:59;5.38;;;2.55;;
71963;SDS011;59834;52.124;5.422;2023-05-13T12:19:26;4.67;;;2.20;;
71963;SDS011;59834;52.124;5.422;2023-05-13T12:21:58;3.05;;;1.90;;
71963;SDS011;59834;52.124;5.422;2023-05-13T12:24:24;6.20;;;2.47;;
71963;SDS011;59834;52.124;5.422;2023-05-13T12:27:02;11.05;;;2.05;;
71963;SDS011;59834;52.124;5.422;2023-05-13T12:29:39;4.30;;;1.95;;
71963;SDS011;59834;52.124;5.422;2023-05-13T12:32:31;9.37;;;2.20;;
71963;SDS011;59834;52.124;5.422;2023-05-13T12:34:59;2.88;;;2.03;;
71963;SDS011;59834;52.124;5.422;2023-05-13T12:37:26;3.03;;;1.60;;
71963;SDS011;59834;52.124;5.422;2023-05-13T12:40:07;8.35;;;1.40;;
71963;SDS011;59834;52.124;5.422;2023-05-13T12:45:30;4.50;;;1.50;;
71963;SDS011;59834;52.124;5.422;2023-05-13T12:47:58;3.45;;;1.48;;
71963;SDS011;59834;52.124;5.422;2023-05-13T12:50:31;4.25;;;1.42;;
71963;SDS011;59834;52.124;5.422;2023-05-13T12:52:58;3.92;;;1.50;;
71963;SDS011;59834;52.124;5.422;2023-05-13T12:55:31;5.53;;;1.63;;
71963;SDS011;59834;52.124;5.422;2023-05-13T12:58:06;6.93;;;2.57;;
71963;SDS011;59834;52.124;5.422;2023-05-13T13:00:38;2.28;;;1.42;;
71963;SDS011;59834;52.124;5.422;2023-05-13T13:03:08;3.50;;;1.50;;
71963;SDS011;59834;52.124;5.422;2023-05-13T13:05:35;10.98;;;1.80;;
71963;SDS011;59834;52.124;5.422;2023-05-13T13:08:06;3.78;;;1.63;;
71963;SDS011;59834;52.124;5.422;2023-05-13T13:10:34;2.73;;;1.70;;
71963;SDS011;59834;52.124;5.422;2023-05-13T13:13:01;5.15;;;1.83;;
71963;SDS011;59834;52.124;5.422;2023-05-13T13:15:29;4.05;;;1.77;;
71963;SDS011;59834;52.124;5.422;2023-05-13T13:17:56;3.00;;;1.98;;
71963;SDS011;59834;52.124;5.422;2023-05-13T13:20:26;2.58;;;2.03;;
71963;SDS011;59834;52.124;5.422;2023-05-13T13:22:52;2.63;;;1.83;;
71963;SDS011;59834;52.124;5.422;2023-05-13T13:25:20;2.95;;;1.80;;
71963;SDS011;59834;52.124;5.422;2023-05-13T13:27:47;4.60;;;1.92;;
71963;SDS011;59834;52.124;5.422;2023-05-13T13:30:13;4.47;;;1.65;;
71963;SDS011;59834;52.124;5.422;2023-05-13T13:32:40;5.05;;;1.60;;
71963;SDS011;59834;52.124;5.422;2023-05-13T13:35:10;4.53;;;1.63;;
71963;SDS011;59834;52.124;5.422;2023-05-13T13:37:38;4.57;;;1.60;;
71963;SDS011;59834;52.124;5.422;2023-05-13T13:40:04;3.45;;;1.63;;
71963;SDS011;59834;52.124;5.422;2023-05-13T13:42:32;4.97;;;1.63;;
71963;SDS011;59834;52.124;5.422;2023-05-13T13:45:10;4.07;;;1.67;;
71963;SDS011;59834;52.124;5.422;2023-05-13T13:47:37;6.07;;;2.40;;
71963;SDS011;59834;52.124;5.422;2023-05-13T13:50:05;8.68;;;1.60;;
71963;SDS011;59834;52.124;5.422;2023-05-13T13:52:32;2.28;;;1.48;;
71963;SDS011;59834;52.124;5.422;2023-05-13T13:54:59;1.67;;;1.40;;
71963;SDS011;59834;52.124;5.422;2023-05-13T13:57:25;2.20;;;1.42;;
71963;SDS011;59834;52.124;5.422;2023-05-13T13:59:52;2.63;;;1.83;;
71963;SDS011;59834;52.124;5.422;2023-05-13T14:02:19;2.20;;;1.67;;
71963;SDS011;59834;52.124;5.422;2023-05-13T14:04:46;1.63;;;0.90;;
71963;SDS011;59834;52.124;5.422;2023-05-13T14:07:12;2.25;;;1.60;;
71963;SDS011;59834;52.124;5.422;2023-05-13T14:09:42;2.53;;;1.60;;
71963;SDS011;59834;52.124;5.422;2023-05-13T14:12:11;7.80;;;3.20;;
71963;SDS011;59834;52.124;5.422;2023-05-13T14:14:39;3.58;;;1.50;;
71963;SDS011;59834;52.124;5.422;2023-05-13T14:17:06;8.70;;;1.27;;
71963;SDS011;59834;52.124;5.422;2023-05-13T14:19:32;2.22;;;1.45;;
71963;SDS011;59834;52.124;5.422;2023-05-13T14:21:59;2.22;;;1.23;;
71963;SDS011;59834;52.124;5.422;2023-05-13T14:24:26;3.33;;;1.90;;
71963;SDS011;59834;52.124;5.422;2023-05-13T14:26:52;2.60;;;1.40;;
71963;SDS011;59834;52.124;5.422;2023-05-13T14:29:19;3.80;;;2.38;;
71963;SDS011;59834;52.124;5.422;2023-05-13T14:31:46;5.72;;;1.52;;
71963;SDS011;59834;52.124;5.422;2023-05-13T14:34:16;3.97;;;1.23;;
71963;SDS011;59834;52.124;5.422;2023-05-13T14:36:43;5.50;;;1.50;;
71963;SDS011;59834;52.124;5.422;2023-05-13T14:39:09;2.17;;;1.25;;
71963;SDS011;59834;52.124;5.422;2023-05-13T14:41:37;6.07;;;1.65;;
71963;SDS011;59834;52.124;5.422;2023-05-13T14:44:06;9.63;;;2.20;;
71963;SDS011;59834;52.124;5.422;2023-05-13T14:46:32;8.30;;;1.80;;
71963;SDS011;59834;52.124;5.422;2023-05-13T14:49:03;5.80;;;1.40;;
71963;SDS011;59834;52.124;5.422;2023-05-13T14:51:30;2.22;;;1.20;;
71963;SDS011;59834;52.124;5.422;2023-05-13T14:53:56;6.07;;;1.60;;
71963;SDS011;59834;52.124;5.422;2023-05-13T14:56:23;5.78;;;2.17;;
71963;SDS011;59834;52.124;5.422;2023-05-13T14:58:51;4.65;;;1.52;;
71963;SDS011;59834;52.124;5.422;2023-05-13T15:01:18;4.77;;;2.60;;
71963;SDS011;59834;52.124;5.422;2023-05-13T15:03:45;4.53;;;1.60;;
71963;SDS011;59834;52.124;5.422;2023-05-13T15:06:15;2.13;;;1.33;;
71963;SDS011;59834;52.124;5.422;2023-05-13T15:08:41;9.98;;;1.65;;
71963;SDS011;59834;52.124;5.422;2023-05-13T15:11:08;4.38;;;1.45;;
71963;SDS011;59834;52.124;5.422;2023-05-13T15:13:34;1.70;;;1.17;;
71963;SDS011;59834;52.124;5.422;2023-05-13T15:16:02;1.85;;;1.08;;
71963;SDS011;59834;52.124;5.422;2023-05-13T15:18:29;2.28;;;1.27;;
71963;SDS011;59834;52.124;5.422;2023-05-13T15:20:56;3.53;;;0.90;;
71963;SDS011;59834;52.124;5.422;2023-05-13T15:23:23;5.18;;;1.33;;
71963;SDS011;59834;52.124;5.422;2023-05-13T15:25:50;2.13;;;1.50;;
71963;SDS011;59834;52.124;5.422;2023-05-13T15:28:16;4.38;;;1.15;;
71963;SDS011;59834;52.124;5.422;2023-05-13T15:30:43;9.15;;;1.20;;
71963;SDS011;59834;52.124;5.422;2023-05-13T15:33:10;3.22;;;1.30;;
71963;SDS011;59834;52.124;5.422;2023-05-13T15:35:37;5.40;;;1.42;;
71963;SDS011;59834;52.124;5.422;2023-05-13T15:38:04;1.87;;;1.00;;
71963;SDS011;59834;52.124;5.422;2023-05-13T15:40:31;4.53;;;1.17;;
71963;SDS011;59834;52.124;5.422;2023-05-13T15:42:58;3.63;;;1.33;;
71963;SDS011;59834;52.124;5.422;2023-05-13T15:45:24;12.65;;;1.30;;
71963;SDS011;59834;52.124;5.422;2023-05-13T15:47:51;8.38;;;1.73;;
71963;SDS011;59834;52.124;5.422;2023-05-13T15:50:18;2.93;;;1.97;;
71963;SDS011;59834;52.124;5.422;2023-05-13T15:52:45;3.72;;;1.13;;
71963;SDS011;59834;52.124;5.422;2023-05-13T15:55:11;3.75;;;1.75;;
71963;SDS011;59834;52.124;5.422;2023-05-13T15:57:38;3.25;;;1.10;;
71963;SDS011;59834;52.124;5.422;2023-05-13T16:00:08;3.22;;;1.30;;
71963;SDS011;59834;52.124;5.422;2023-05-13T16:02:35;2.03;;;1.40;;
71963;SDS011;59834;52.124;5.422;2023-05-13T16:05:05;3.97;;;1.85;;
71963;SDS011;59834;52.124;5.422;2023-05-13T16:07:32;4.72;;;2.28;;
71963;SDS011;59834;52.124;5.422;2023-05-13T16:09:59;8.63;;;2.78;;
71963;SDS011;59834;52.124;5.422;2023-05-13T16:12:27;5.60;;;2.88;;
71963;SDS011;59834;52.124;5.422;2023-05-13T16:14:55;7.53;;;2.40;;
71963;SDS011;59834;52.124;5.422;2023-05-13T16:17:22;4.72;;;2.80;;
71963;SDS011;59834;52.124;5.422;2023-05-13T16:19:48;4.85;;;2.55;;
71963;SDS011;59834;52.124;5.422;2023-05-13T16:22:25;3.97;;;2.45;;
71963;SDS011;59834;52.124;5.422;2023-05-13T16:25:04;3.95;;;2.70;;
71963;SDS011;59834;52.124;5.422;2023-05-13T16:27:36;7.20;;;2.37;;
71963;SDS011;59834;52.124;5.422;2023-05-13T16:30:20;4.15;;;3.15;;
71963;SDS011;59834;52.124;5.422;2023-05-13T16:32:49;5.70;;;2.45;;
71963;SDS011;59834;52.124;5.422;2023-05-13T16:35:19;5.57;;;2.70;;
71963;SDS011;59834;52.124;5.422;2023-05-13T16:37:48;7.15;;;2.70;;
71963;SDS011;59834;52.124;5.422;2023-05-13T16:40:16;5.77;;;2.50;;
71963;SDS011;59834;52.124;5.422;2023-05-13T16:42:42;3.80;;;2.30;;